createdAt,value
2023-03-26T00:01:16.324Z,9.07
2023-03-26T00:05:20.119Z,9.01
2023-03-26T00:09:24.615Z,8.86
2023-03-26T00:13:27.753Z,8.79
2023-03-26T00:17:31.158Z,8.74
2023-03-26T00:21:34.291Z,8.68
2023-03-26T00:25:42.384Z,8.67
2023-03-26T00:29:45.566Z,8.69
2023-03-26T00:33:49.078Z,8.67
2023-03-26T00:37:53.791Z,8.64
2023-03-26T00:41:58.574Z,8.68
2023-03-26T00:46:02.319Z,8.70
2023-03-26T00:50:06.527Z,8.76
2023-03-26T00:54:11.922Z,8.70
2023-03-26T00:58:17.765Z,8.62
2023-03-26T01:02:21.433Z,8.55
2023-03-26T01:06:28.138Z,8.47
2023-03-26T01:10:38.740Z,8.32
2023-03-26T01:14:43.404Z,8.15
2023-03-26T01:18:46.849Z,8.10
2023-03-26T01:22:53.696Z,8.11
2023-03-26T01:27:33.700Z,7.95
2023-03-26T01:31:43.034Z,7.87
2023-03-26T01:35:52.713Z,7.80
2023-03-26T01:40:06.978Z,7.77
2023-03-26T01:44:17.910Z,7.78
2023-03-26T01:48:21.421Z,7.74
2023-03-26T01:52:26.298Z,7.71
2023-03-26T01:56:36.759Z,7.69
2023-03-26T02:00:47.058Z,7.78
2023-03-26T02:04:55.892Z,7.78
2023-03-26T02:09:03.491Z,7.68
2023-03-26T02:13:06.985Z,7.90
2023-03-26T02:17:12.580Z,7.88
2023-03-26T02:21:20.513Z,7.97
2023-03-26T02:25:24.142Z,8.09
2023-03-26T02:29:27.961Z,8.12
2023-03-26T02:33:33.214Z,8.18
2023-03-26T02:37:37.201Z,8.22
2023-03-26T02:41:51.459Z,8.21
2023-03-26T02:45:55.176Z,8.23
2023-03-26T02:50:19.454Z,8.30
2023-03-26T02:54:44.154Z,8.31
2023-03-26T02:58:58.152Z,8.24
2023-03-26T03:03:04.597Z,8.19
2023-03-26T03:07:09.415Z,8.14
2023-03-26T03:11:14.810Z,8.08
2023-03-26T03:15:24.646Z,8.05
2023-03-26T03:19:27.801Z,8.08
2023-03-26T03:23:32.756Z,8.07
2023-03-26T03:27:48.590Z,8.04
2023-03-26T03:31:51.852Z,8.04
2023-03-26T03:36:24.298Z,8.03
2023-03-26T03:40:38.655Z,7.95
2023-03-26T03:44:41.919Z,7.86
2023-03-26T03:48:56.242Z,7.87
2023-03-26T03:53:05.769Z,7.85
2023-03-26T03:57:11.219Z,7.85
2023-03-26T04:01:18.757Z,7.80
2023-03-26T04:05:36.555Z,7.74
2023-03-26T04:09:40.044Z,7.70
2023-03-26T04:13:51.625Z,7.54
2023-03-26T04:18:10.399Z,7.54
2023-03-26T04:22:13.960Z,7.44
2023-03-26T04:26:30.935Z,7.48
2023-03-26T04:30:46.842Z,7.47
2023-03-26T04:35:20.028Z,7.45
2023-03-26T04:39:30.066Z,7.44
2023-03-26T04:43:53.175Z,7.39
2023-03-26T04:48:17.220Z,7.43
2023-03-26T04:52:20.535Z,7.43
2023-03-26T04:56:37.587Z,7.50
2023-03-26T05:01:10.236Z,7.54
2023-03-26T05:05:19.396Z,7.56
2023-03-26T05:09:22.975Z,7.58
2023-03-26T05:13:52.291Z,7.62
2023-03-26T05:17:55.858Z,7.65
2023-03-26T05:22:12.012Z,7.60
2023-03-26T05:26:24.333Z,7.62
2023-03-26T05:30:27.997Z,7.65
2023-03-26T05:34:35.329Z,7.71
2023-03-26T05:38:41.217Z,7.69
2023-03-26T05:42:47.479Z,7.65
2023-03-26T05:47:06.016Z,7.71
2023-03-26T05:51:09.913Z,7.70
2023-03-26T05:55:20.296Z,7.68
2023-03-26T05:59:42.205Z,7.66
2023-03-26T06:04:04.552Z,7.63
2023-03-26T06:08:13.446Z,7.59
2023-03-26T06:12:25.839Z,7.57
2023-03-26T06:16:29.179Z,7.58
2023-03-26T06:20:52.822Z,7.58
2023-03-26T06:25:20.216Z,7.56
2023-03-26T06:29:50.870Z,7.57
2023-03-26T06:34:10.535Z,7.60
2023-03-26T06:38:14.051Z,7.62
2023-03-26T06:42:17.131Z,7.61
2023-03-26T06:46:42.232Z,7.61
2023-03-26T06:51:23.834Z,7.65
2023-03-26T06:55:54.045Z,7.68
2023-03-26T07:00:16.579Z,7.74
2023-03-26T07:04:39.580Z,7.75
2023-03-26T07:09:01.084Z,7.76
2023-03-26T07:13:36.726Z,7.75
2023-03-26T07:18:00.068Z,7.81
2023-03-26T07:22:16.400Z,7.80
2023-03-26T07:26:50.206Z,7.80
2023-03-26T07:31:07.682Z,7.78
2023-03-26T07:35:28.800Z,7.87
2023-03-26T07:40:00.461Z,7.82
2023-03-26T07:44:45.085Z,7.88
2023-03-26T07:48:54.138Z,7.85
2023-03-26T07:53:19.261Z,7.90
2023-03-26T07:57:50.864Z,7.88
2023-03-26T08:02:42.335Z,7.85
2023-03-26T08:07:12.208Z,7.85
2023-03-26T08:11:47.793Z,7.86
2023-03-26T08:16:01.460Z,7.91
2023-03-26T08:20:17.412Z,7.88
2023-03-26T08:24:26.416Z,7.89
2023-03-26T08:28:50.795Z,7.91
2023-03-26T08:32:58.172Z,7.89
2023-03-26T08:37:01.342Z,7.92
2023-03-26T08:41:29.591Z,7.90
2023-03-26T08:46:03.253Z,7.89
2023-03-26T08:50:36.422Z,7.89
2023-03-26T08:55:04.313Z,7.85
2023-03-26T08:59:29.417Z,7.75
2023-03-26T09:03:57.330Z,7.46
2023-03-26T09:08:30.213Z,7.44
2023-03-26T09:13:15.084Z,7.37
2023-03-26T09:17:45.536Z,7.35
2023-03-26T09:22:11.809Z,7.37
2023-03-26T09:26:46.320Z,7.39
2023-03-26T09:31:38.180Z,7.39
2023-03-26T09:35:54.790Z,7.42
2023-03-26T09:40:10.796Z,7.43
2023-03-26T09:44:53.924Z,7.52
2023-03-26T09:49:34.056Z,7.61
2023-03-26T09:54:07.229Z,7.65
2023-03-26T09:58:38.415Z,7.66
2023-03-26T10:03:17.463Z,7.79
2023-03-26T10:07:49.673Z,7.92
2023-03-26T10:12:20.549Z,8.03
2023-03-26T10:16:33.087Z,7.94
2023-03-26T10:20:53.118Z,7.91
2023-03-26T10:25:23.284Z,8.02
2023-03-26T10:29:44.261Z,8.06
2023-03-26T10:33:59.476Z,8.27
2023-03-26T10:38:16.618Z,8.25
2023-03-26T10:42:42.535Z,8.35
2023-03-26T10:46:58.762Z,8.14
2023-03-26T10:51:37.286Z,8.08
2023-03-26T10:55:46.849Z,8.25
2023-03-26T10:59:50.032Z,8.18
2023-03-26T11:03:54.945Z,8.30
2023-03-26T11:08:03.488Z,8.25
2023-03-26T11:12:26.569Z,8.52
2023-03-26T11:16:50.089Z,8.48
2023-03-26T11:21:19.717Z,8.40
2023-03-26T11:25:31.846Z,8.42
2023-03-26T11:29:51.144Z,8.47
2023-03-26T11:33:58.964Z,8.40
2023-03-26T11:38:07.051Z,8.61
2023-03-26T11:42:14.310Z,8.30
2023-03-26T11:46:25.979Z,8.34
2023-03-26T11:50:33.932Z,8.41
2023-03-26T11:54:37.789Z,8.22
2023-03-26T11:58:47.231Z,8.41
2023-03-26T12:02:58.906Z,8.32
2023-03-26T12:07:10.926Z,8.48
2023-03-26T12:11:16.185Z,8.32
2023-03-26T12:15:21.805Z,8.41
2023-03-26T12:19:29.007Z,8.42
2023-03-26T12:23:38.862Z,8.29
2023-03-26T12:27:45.045Z,8.43
2023-03-26T12:31:55.585Z,8.53
2023-03-26T12:36:00.692Z,8.57
2023-03-26T12:40:14.290Z,8.56
2023-03-26T12:44:47.004Z,8.77
2023-03-26T12:48:50.156Z,8.80
2023-03-26T12:53:07.379Z,8.72
2023-03-26T12:57:21.264Z,8.64
2023-03-26T13:01:35.588Z,8.57
2023-03-26T13:05:55.708Z,8.75
2023-03-26T13:10:30.698Z,8.68
2023-03-26T13:14:54.069Z,8.60
2023-03-26T13:19:03.665Z,9.02
2023-03-26T13:23:16.633Z,8.85
2023-03-26T13:27:36.546Z,9.22
2023-03-26T13:31:50.686Z,9.12
2023-03-26T13:36:14.348Z,9.08
2023-03-26T13:40:32.827Z,8.80
2023-03-26T13:44:52.864Z,8.91
2023-03-26T13:49:15.819Z,8.95
2023-03-26T13:53:24.727Z,9.16
2023-03-26T13:57:33.710Z,8.94
2023-03-26T14:01:46.560Z,9.40
2023-03-26T14:05:56.297Z,9.15
2023-03-26T14:10:06.305Z,9.71
2023-03-26T14:14:14.266Z,9.35
2023-03-26T14:18:31.996Z,9.27
2023-03-26T14:22:47.634Z,9.24
2023-03-26T14:27:17.882Z,9.41
2023-03-26T14:35:41.565Z,9.56
2023-03-26T14:40:05.762Z,9.27
2023-03-26T14:44:47.632Z,9.36
2023-03-26T14:49:07.973Z,9.68
2023-03-26T14:53:22.984Z,9.69
2023-03-26T14:57:49.868Z,9.54
2023-03-26T15:02:24.091Z,9.45
2023-03-26T15:07:06.384Z,9.42
2023-03-26T15:11:24.409Z,9.16
2023-03-26T15:16:09.339Z,9.16
2023-03-26T15:20:56.932Z,8.88
2023-03-26T15:25:35.130Z,8.82
2023-03-26T15:30:23.234Z,8.66
2023-03-26T15:35:07.847Z,8.60
2023-03-26T15:39:44.307Z,8.52
2023-03-26T15:44:29.196Z,8.45
2023-03-26T15:48:43.645Z,8.32
2023-03-26T15:52:55.494Z,8.26
2023-03-26T15:57:10.629Z,8.19
2023-03-26T16:01:23.647Z,8.26
2023-03-26T16:05:48.285Z,8.21
2023-03-26T16:10:00.967Z,8.20
2023-03-26T16:14:17.748Z,8.31
2023-03-26T16:18:29.864Z,8.32
2023-03-26T16:22:47.438Z,8.22
2023-03-26T16:27:02.784Z,8.25
2023-03-26T16:31:36.603Z,8.08
2023-03-26T16:36:02.027Z,8.04
2023-03-26T16:40:34.218Z,8.01
2023-03-26T16:44:46.276Z,7.92
2023-03-26T16:48:58.967Z,7.89
2023-03-26T16:53:17.138Z,7.83
2023-03-26T16:57:29.579Z,7.75
2023-03-26T17:01:41.568Z,7.78
2023-03-26T17:06:02.486Z,7.74
2023-03-26T17:10:16.118Z,7.72
2023-03-26T17:14:33.434Z,7.74
2023-03-26T17:18:47.956Z,7.65
2023-03-26T17:23:06.042Z,7.64
2023-03-26T17:27:27.953Z,7.64
2023-03-26T17:31:42.473Z,7.55
2023-03-26T17:35:47.123Z,7.55
2023-03-26T17:40:38.306Z,7.54
2023-03-26T17:44:46.524Z,7.48
2023-03-26T17:48:57.803Z,7.42
2023-03-26T17:53:04.697Z,7.36
2023-03-26T17:57:16.052Z,7.31
2023-03-26T18:01:29.765Z,7.31
2023-03-26T18:05:35.959Z,7.30
2023-03-26T18:09:54.729Z,7.26
2023-03-26T18:14:16.756Z,7.27
2023-03-26T18:18:26.445Z,7.25
2023-03-26T18:22:31.684Z,7.22
2023-03-26T18:26:37.868Z,7.19
2023-03-26T18:30:47.700Z,7.14
2023-03-26T18:34:57.315Z,7.14
2023-03-26T18:39:02.413Z,7.09
2023-03-26T18:43:05.996Z,7.03
2023-03-26T18:47:10.389Z,6.99
2023-03-26T18:51:16.068Z,6.98
2023-03-26T18:55:20.568Z,6.93
2023-03-26T18:59:28.453Z,6.89
2023-03-26T19:03:35.718Z,6.87
2023-03-26T19:07:40.935Z,6.82
2023-03-26T19:11:45.782Z,6.78
2023-03-26T19:15:51.590Z,6.78
2023-03-26T19:19:57.493Z,6.76
2023-03-26T19:24:03.891Z,6.75
2023-03-26T19:28:08.470Z,6.68
2023-03-26T19:32:18.829Z,6.71
2023-03-26T19:36:25.132Z,6.72
2023-03-26T19:40:34.984Z,6.67
2023-03-26T19:44:41.194Z,6.60
2023-03-26T19:48:49.222Z,6.58
2023-03-26T19:53:17.893Z,6.56
2023-03-26T19:57:23.611Z,6.54
2023-03-26T20:01:28.526Z,6.49
2023-03-26T20:05:35.852Z,6.43
2023-03-26T20:09:39.623Z,6.47
2023-03-26T20:13:44.158Z,6.40
2023-03-26T20:17:50.268Z,6.35
2023-03-26T20:21:53.899Z,6.31
2023-03-26T20:26:00.881Z,6.23
2023-03-26T20:30:07.239Z,6.22
2023-03-26T20:34:17.876Z,6.13
2023-03-26T20:38:26.580Z,6.10
2023-03-26T20:42:36.468Z,6.08
2023-03-26T20:46:41.517Z,6.02
2023-03-26T20:50:50.645Z,5.96
2023-03-26T20:54:54.030Z,5.98
2023-03-26T20:59:09.988Z,5.95
2023-03-26T21:03:17.763Z,5.87
2023-03-26T21:07:21.065Z,5.84
2023-03-26T21:11:46.976Z,5.80
2023-03-26T21:15:50.889Z,5.78
2023-03-26T21:19:56.361Z,5.72
2023-03-26T21:24:08.655Z,5.66
2023-03-26T21:28:28.929Z,5.65
2023-03-26T21:32:40.121Z,5.62
2023-03-26T21:36:46.781Z,5.55
2023-03-26T21:40:58.428Z,5.52
2023-03-26T21:45:03.597Z,5.43
2023-03-26T21:49:07.516Z,5.37
2023-03-26T21:53:16.000Z,5.24
2023-03-26T21:57:35.095Z,5.21
2023-03-26T22:01:46.514Z,5.03
2023-03-26T22:05:56.110Z,4.99
2023-03-26T22:10:00.893Z,4.83
2023-03-26T22:14:05.050Z,4.60
2023-03-26T22:18:08.295Z,4.54
2023-03-26T22:22:12.589Z,4.48
2023-03-26T22:26:19.802Z,4.35
2023-03-26T22:30:23.033Z,4.30
2023-03-26T22:34:26.405Z,4.22
2023-03-26T22:38:29.722Z,4.17
2023-03-26T22:42:34.487Z,4.02
2023-03-26T22:46:37.897Z,3.99
2023-03-26T22:50:41.239Z,3.91
2023-03-26T22:54:44.447Z,3.71
2023-03-26T22:58:49.150Z,3.76
2023-03-26T23:02:53.258Z,3.81
2023-03-26T23:06:56.703Z,3.75
2023-03-26T23:11:00.013Z,3.70
2023-03-26T23:15:05.912Z,3.66
2023-03-26T23:19:09.638Z,3.50
2023-03-26T23:23:13.132Z,3.45
2023-03-26T23:27:16.515Z,3.36
2023-03-26T23:31:27.647Z,3.35
2023-03-26T23:35:31.025Z,3.20
2023-03-26T23:39:34.675Z,3.31
2023-03-26T23:43:39.738Z,3.32
2023-03-26T23:47:59.848Z,3.16
2023-03-26T23:52:04.420Z,3.26
2023-03-26T23:56:08.413Z,3.28
